createdAt,value
2022-09-17T00:01:25.067Z,78.15
2022-09-17T00:03:55.678Z,77.61
2022-09-17T00:06:23.995Z,77.55
2022-09-17T00:08:50.878Z,78.69
2022-09-17T00:11:21.332Z,77.96
2022-09-17T00:13:48.938Z,79.54
2022-09-17T00:16:34.139Z,79.49
2022-09-17T00:19:02.072Z,79.18
2022-09-17T00:21:28.863Z,79.69
2022-09-17T00:24:02.294Z,78.98
2022-09-17T00:26:30.956Z,79.45
2022-09-17T00:28:58.767Z,78.86
2022-09-17T00:31:26.703Z,79.16
2022-09-17T00:33:53.858Z,78.46
2022-09-17T00:36:21.513Z,78.55
2022-09-17T00:38:57.269Z,77.97
2022-09-17T00:41:27.057Z,78.31
2022-09-17T00:43:57.081Z,78.21
2022-09-17T00:46:40.288Z,78.24
2022-09-17T00:49:29.286Z,78.27
2022-09-17T00:52:18.907Z,77.03
2022-09-17T00:54:54.190Z,77.83
2022-09-17T00:57:21.132Z,76.66
2022-09-17T00:59:48.542Z,76.38
2022-09-17T01:02:15.948Z,76.20
2022-09-17T01:04:42.907Z,76.90
2022-09-17T01:07:23.653Z,76.75
2022-09-17T01:10:05.110Z,76.19
2022-09-17T01:12:45.539Z,76.69
2022-09-17T01:15:41.585Z,76.99
2022-09-17T01:18:21.781Z,76.73
2022-09-17T01:21:32.317Z,76.67
2022-09-17T01:24:23.717Z,75.59
2022-09-17T01:27:22.210Z,75.71
2022-09-17T01:30:05.271Z,75.30
2022-09-17T01:32:47.650Z,75.27
2022-09-17T01:35:29.078Z,74.65
2022-09-17T01:38:35.656Z,73.61
2022-09-17T01:41:31.154Z,73.81
2022-09-17T01:44:20.428Z,73.72
2022-09-17T01:46:53.510Z,73.01
2022-09-17T01:49:25.382Z,73.52
2022-09-17T01:51:54.729Z,72.74
2022-09-17T01:54:43.545Z,72.03
2022-09-17T01:57:18.398Z,72.49
2022-09-17T01:59:55.547Z,72.25
2022-09-17T02:02:29.909Z,72.33
2022-09-17T02:05:06.959Z,72.31
2022-09-17T02:07:40.826Z,71.79
2022-09-17T02:10:13.875Z,72.03
2022-09-17T02:12:45.818Z,72.42
2022-09-17T02:15:24.027Z,72.45
2022-09-17T02:17:56.329Z,72.24
2022-09-17T02:20:34.151Z,72.01
2022-09-17T02:23:08.614Z,71.62
2022-09-17T02:25:42.689Z,72.08
2022-09-17T02:28:20.039Z,72.35
2022-09-17T02:30:46.417Z,72.36
2022-09-17T02:33:15.815Z,71.75
2022-09-17T02:35:44.129Z,71.93
2022-09-17T02:38:10.776Z,72.44
2022-09-17T02:40:48.697Z,72.38
2022-09-17T02:43:56.398Z,72.99
2022-09-17T02:46:51.888Z,73.24
2022-09-17T02:49:41.240Z,73.67
2022-09-17T02:52:27.307Z,73.22
2022-09-17T02:55:29.218Z,74.02
2022-09-17T02:58:12.634Z,74.69
2022-09-17T03:00:40.428Z,74.39
2022-09-17T03:03:16.953Z,74.69
2022-09-17T03:05:45.435Z,74.42
2022-09-17T03:08:20.185Z,74.58
2022-09-17T03:10:49.090Z,75.03
2022-09-17T03:13:16.161Z,75.76
2022-09-17T03:15:43.239Z,75.21
2022-09-17T03:18:10.808Z,75.91
2022-09-17T03:20:37.153Z,76.34
2022-09-17T03:23:03.627Z,76.26
2022-09-17T03:25:30.066Z,77.18
2022-09-17T03:27:56.443Z,76.79
2022-09-17T03:30:22.863Z,76.91
2022-09-17T03:32:49.171Z,76.90
2022-09-17T03:35:15.657Z,77.05
2022-09-17T03:37:43.037Z,77.56
2022-09-17T03:40:09.602Z,76.80
2022-09-17T03:42:36.266Z,77.69
2022-09-17T03:45:02.661Z,77.81
2022-09-17T03:47:30.016Z,77.70
2022-09-17T03:49:56.478Z,78.19
2022-09-17T03:52:22.898Z,77.57
2022-09-17T03:54:49.269Z,77.34
2022-09-17T03:57:15.688Z,77.49
2022-09-17T03:59:42.251Z,76.95
2022-09-17T04:02:08.670Z,77.06
2022-09-17T04:04:35.219Z,76.64
2022-09-17T04:07:01.629Z,76.50
2022-09-17T04:09:27.964Z,75.88
2022-09-17T04:11:54.306Z,76.48
2022-09-17T04:14:23.158Z,76.67
2022-09-17T04:16:49.686Z,75.79
2022-09-17T04:19:16.158Z,75.64
2022-09-17T04:21:42.862Z,75.18
2022-09-17T04:24:09.402Z,75.17
2022-09-17T04:26:35.774Z,75.69
2022-09-17T04:29:02.151Z,75.61
2022-09-17T04:31:28.722Z,75.91
2022-09-17T04:33:55.254Z,75.33
2022-09-17T04:36:21.697Z,75.33
2022-09-17T04:38:48.766Z,75.53
2022-09-17T04:41:15.304Z,75.36
2022-09-17T04:43:41.684Z,75.32
2022-09-17T04:46:08.051Z,75.09
2022-09-17T04:48:34.686Z,75.83
2022-09-17T04:51:01.015Z,76.04
2022-09-17T04:53:27.321Z,75.85
2022-09-17T04:55:53.716Z,75.90
2022-09-17T04:58:20.090Z,76.34
2022-09-17T05:00:46.597Z,76.85
2022-09-17T05:03:12.969Z,76.19
2022-09-17T05:05:39.394Z,76.01
2022-09-17T05:08:05.825Z,75.78
2022-09-17T05:10:32.155Z,75.81
2022-09-17T05:12:58.583Z,76.15
2022-09-17T05:15:26.382Z,75.09
2022-09-17T05:17:53.385Z,74.82
2022-09-17T05:20:20.125Z,74.81
2022-09-17T05:22:52.262Z,75.60
2022-09-17T05:25:23.975Z,76.08
2022-09-17T05:27:52.336Z,76.32
2022-09-17T05:30:19.219Z,76.66
2022-09-17T05:32:45.589Z,76.25
2022-09-17T05:35:12.039Z,75.74
2022-09-17T05:37:38.649Z,75.89
2022-09-17T05:40:07.787Z,76.28
2022-09-17T05:42:34.771Z,75.86
2022-09-17T05:45:01.288Z,76.18
2022-09-17T05:47:27.769Z,75.71
2022-09-17T05:49:54.170Z,75.51
2022-09-17T05:52:20.650Z,76.25
2022-09-17T05:54:47.147Z,77.07
2022-09-17T05:57:13.699Z,76.94
2022-09-17T05:59:40.016Z,77.29
2022-09-17T06:02:06.681Z,78.04
2022-09-17T06:04:35.095Z,77.12
2022-09-17T06:07:06.030Z,78.02
2022-09-17T06:09:32.415Z,78.10
2022-09-17T06:11:58.780Z,77.13
2022-09-17T06:14:25.168Z,77.61
2022-09-17T06:16:51.514Z,77.70
2022-09-17T06:19:17.879Z,77.86
2022-09-17T06:21:44.264Z,77.27
2022-09-17T06:24:10.896Z,77.50
2022-09-17T06:26:37.361Z,77.64
2022-09-17T06:29:03.731Z,77.70
2022-09-17T06:31:30.210Z,77.87
2022-09-17T06:33:58.489Z,77.79
2022-09-17T06:36:25.165Z,78.23
2022-09-17T06:38:53.227Z,78.92
2022-09-17T06:41:19.707Z,76.83
2022-09-17T06:43:46.097Z,77.16
2022-09-17T06:46:12.675Z,77.41
2022-09-17T06:48:39.401Z,76.52
2022-09-17T06:51:08.565Z,77.23
2022-09-17T06:53:37.415Z,75.74
2022-09-17T06:56:06.920Z,75.57
2022-09-17T06:58:36.975Z,75.47
2022-09-17T07:01:05.281Z,75.29
2022-09-17T07:03:32.281Z,75.15
2022-09-17T07:05:58.965Z,75.36
2022-09-17T07:08:28.831Z,75.30
2022-09-17T07:10:56.628Z,75.83
2022-09-17T07:13:24.197Z,75.33
2022-09-17T07:15:55.650Z,75.85
2022-09-17T07:18:23.319Z,75.28
2022-09-17T07:20:57.730Z,74.56
2022-09-17T07:23:26.724Z,74.46
2022-09-17T07:25:54.775Z,73.23
2022-09-17T07:28:22.599Z,73.28
2022-09-17T07:30:50.271Z,73.13
2022-09-17T07:33:19.217Z,72.93
2022-09-17T07:35:56.083Z,73.04
2022-09-17T07:38:23.303Z,72.12
2022-09-17T07:41:24.271Z,73.49
2022-09-17T07:43:53.904Z,73.29
2022-09-17T07:46:21.978Z,72.12
2022-09-17T07:48:49.732Z,71.68
2022-09-17T07:51:21.997Z,70.50
2022-09-17T07:53:51.896Z,71.54
2022-09-17T07:56:18.576Z,71.21
2022-09-17T07:58:44.967Z,72.20
2022-09-17T08:01:12.955Z,71.94
2022-09-17T08:03:40.041Z,72.70
2022-09-17T08:06:12.387Z,72.49
2022-09-17T08:08:39.767Z,71.79
2022-09-17T08:11:09.005Z,71.67
2022-09-17T08:13:35.873Z,72.33
2022-09-17T08:16:05.324Z,71.47
2022-09-17T08:18:32.575Z,71.48
2022-09-17T08:21:00.900Z,70.90
2022-09-17T08:23:28.085Z,72.37
2022-09-17T08:25:55.792Z,73.27
2022-09-17T08:28:23.929Z,75.08
2022-09-17T08:30:50.454Z,75.72
2022-09-17T08:33:17.552Z,76.03
2022-09-17T08:35:52.395Z,75.89
2022-09-17T08:38:18.896Z,75.45
2022-09-17T08:41:08.018Z,75.01
2022-09-17T08:43:41.931Z,74.11
2022-09-17T08:46:10.761Z,73.30
2022-09-17T08:49:16.231Z,73.62
2022-09-17T08:51:56.433Z,72.04
2022-09-17T08:54:48.434Z,72.18
2022-09-17T08:57:44.969Z,71.70
2022-09-17T09:00:18.613Z,71.20
2022-09-17T09:03:03.495Z,69.71
2022-09-17T09:05:45.316Z,68.88
2022-09-17T09:08:30.193Z,68.36
2022-09-17T09:11:02.649Z,67.61
2022-09-17T09:13:50.348Z,68.63
2022-09-17T09:16:21.179Z,66.78
2022-09-17T09:18:51.878Z,66.14
2022-09-17T09:21:33.865Z,66.23
2022-09-17T09:24:05.341Z,66.74
2022-09-17T09:26:58.833Z,66.98
2022-09-17T09:30:03.154Z,68.64
2022-09-17T09:32:56.549Z,69.02
2022-09-17T09:35:30.040Z,69.94
2022-09-17T09:38:19.678Z,70.25
2022-09-17T09:40:48.582Z,72.98
2022-09-17T09:43:20.365Z,75.01
2022-09-17T09:46:14.149Z,75.23
2022-09-17T09:48:57.185Z,76.34
2022-09-17T09:51:50.501Z,77.79
2022-09-17T09:54:35.538Z,77.60
2022-09-17T09:57:14.963Z,78.14
2022-09-17T09:59:41.406Z,77.75
2022-09-17T10:02:08.252Z,78.47
2022-09-17T10:04:34.820Z,78.24
2022-09-17T10:07:05.793Z,79.09
2022-09-17T10:09:35.147Z,79.62
2022-09-17T10:12:13.576Z,79.17
2022-09-17T10:14:41.739Z,79.23
2022-09-17T10:17:21.513Z,77.71
2022-09-17T10:20:12.381Z,77.50
2022-09-17T10:22:44.564Z,77.98
2022-09-17T10:25:25.907Z,76.20
2022-09-17T10:27:52.329Z,74.94
2022-09-17T10:30:19.170Z,76.08
2022-09-17T10:33:14.109Z,75.34
2022-09-17T10:35:40.455Z,74.12
2022-09-17T10:38:36.971Z,75.61
2022-09-17T10:41:17.399Z,71.74
2022-09-17T10:43:44.479Z,71.65
2022-09-17T10:46:16.194Z,73.37
2022-09-17T10:49:17.502Z,70.25
2022-09-17T10:51:44.567Z,70.42
2022-09-17T10:54:50.987Z,69.76
2022-09-17T10:57:30.825Z,66.55
2022-09-17T11:00:18.834Z,66.45
2022-09-17T11:02:59.352Z,67.25
2022-09-17T11:05:59.494Z,68.68
2022-09-17T11:08:47.550Z,67.04
2022-09-17T11:11:27.458Z,66.18
2022-09-17T11:14:02.985Z,65.60
2022-09-17T11:16:39.983Z,63.73
2022-09-17T11:19:24.577Z,61.74
2022-09-17T11:22:00.769Z,63.52
2022-09-17T11:24:27.020Z,62.17
2022-09-17T11:27:25.582Z,61.57
2022-09-17T11:30:10.385Z,58.87
2022-09-17T11:32:55.704Z,58.14
2022-09-17T11:35:27.532Z,58.73
2022-09-17T11:38:31.416Z,57.88
2022-09-17T11:41:17.380Z,56.49
2022-09-17T11:43:58.102Z,53.23
2022-09-17T11:46:30.806Z,55.20
2022-09-17T11:49:13.664Z,55.81
2022-09-17T11:51:49.843Z,57.19
2022-09-17T11:54:25.350Z,57.93
2022-09-17T11:56:58.645Z,58.67
2022-09-17T11:59:37.400Z,61.00
2022-09-17T12:02:20.892Z,61.82
2022-09-17T12:05:14.568Z,61.80
2022-09-17T12:08:00.615Z,63.65
2022-09-17T12:10:55.754Z,68.24
2022-09-17T12:13:26.946Z,70.83
2022-09-17T12:16:08.674Z,69.42
2022-09-17T12:18:49.394Z,67.85
2022-09-17T12:21:21.911Z,70.26
2022-09-17T12:23:54.564Z,70.49
2022-09-17T12:26:32.266Z,72.25
2022-09-17T12:29:14.731Z,70.91
2022-09-17T12:31:52.619Z,70.00
2022-09-17T12:34:40.293Z,70.10
2022-09-17T12:37:38.426Z,70.59
2022-09-17T12:40:36.012Z,69.69
2022-09-17T12:43:28.649Z,67.21
2022-09-17T12:46:00.947Z,66.76
2022-09-17T12:48:39.439Z,65.00
2022-09-17T12:51:24.915Z,65.57
2022-09-17T12:54:22.071Z,67.33
2022-09-17T12:56:56.820Z,67.51
2022-09-17T12:59:29.951Z,69.32
2022-09-17T13:02:02.392Z,71.45
2022-09-17T13:05:02.170Z,70.99
2022-09-17T13:07:37.519Z,72.42
2022-09-17T13:10:28.552Z,69.76
2022-09-17T13:13:20.593Z,69.66
2022-09-17T13:15:59.378Z,71.51
2022-09-17T13:18:41.437Z,68.33
2022-09-17T13:21:13.284Z,67.52
2022-09-17T13:23:47.977Z,67.46
2022-09-17T13:26:19.119Z,68.43
2022-09-17T13:28:50.573Z,67.54
2022-09-17T13:31:46.002Z,67.72
2022-09-17T13:34:18.990Z,68.10
2022-09-17T13:36:50.267Z,64.05
2022-09-17T13:39:40.900Z,63.64
2022-09-17T13:42:22.913Z,62.79
2022-09-17T13:44:53.545Z,62.60
2022-09-17T13:47:25.207Z,63.62
2022-09-17T13:50:26.223Z,64.56
2022-09-17T13:52:55.555Z,63.29
2022-09-17T13:55:40.442Z,63.27
2022-09-17T13:58:12.368Z,63.21
2022-09-17T14:00:51.316Z,62.83
2022-09-17T14:03:52.565Z,65.21
2022-09-17T14:06:21.113Z,64.85
2022-09-17T14:08:58.485Z,64.07
2022-09-17T14:11:32.444Z,64.39
2022-09-17T14:14:05.043Z,63.72
2022-09-17T14:16:46.794Z,63.46
2022-09-17T14:19:16.408Z,62.22
2022-09-17T14:21:57.450Z,59.94
2022-09-17T14:24:44.585Z,60.19
2022-09-17T14:27:27.402Z,61.03
2022-09-17T14:30:29.268Z,61.63
2022-09-17T14:33:01.528Z,60.89
2022-09-17T14:35:44.001Z,60.91
2022-09-17T14:38:34.777Z,61.69
2022-09-17T14:41:15.844Z,61.06
2022-09-17T14:44:22.080Z,59.74
2022-09-17T14:46:54.774Z,60.30
2022-09-17T14:49:25.123Z,59.54
2022-09-17T14:51:56.683Z,59.51
2022-09-17T14:54:27.076Z,56.76
2022-09-17T14:56:59.519Z,57.00
2022-09-17T14:59:32.864Z,59.07
2022-09-17T15:01:59.741Z,59.38
2022-09-17T15:04:28.748Z,56.68
2022-09-17T15:07:09.884Z,57.77
2022-09-17T15:09:36.714Z,55.84
2022-09-17T15:12:05.109Z,55.16
2022-09-17T15:14:34.550Z,56.42
2022-09-17T15:17:03.410Z,57.55
2022-09-17T15:19:36.019Z,58.50
2022-09-17T15:22:13.266Z,60.53
2022-09-17T15:25:06.601Z,62.14
2022-09-17T15:27:45.491Z,60.08
2022-09-17T15:30:16.308Z,61.04
2022-09-17T15:32:57.572Z,60.52
2022-09-17T15:35:28.610Z,61.15
2022-09-17T15:40:49.110Z,60.73
2022-09-17T15:43:28.716Z,61.21
2022-09-17T15:45:55.949Z,61.72
2022-09-17T15:48:35.343Z,61.89
2022-09-17T15:51:03.984Z,62.34
2022-09-17T15:53:32.317Z,61.69
2022-09-17T15:56:09.452Z,62.27
2022-09-17T15:58:41.779Z,62.60
2022-09-17T16:01:14.650Z,62.86
2022-09-17T16:03:40.998Z,62.70
2022-09-17T16:06:22.499Z,63.18
2022-09-17T16:08:53.886Z,62.20
2022-09-17T16:11:25.625Z,63.17
2022-09-17T16:13:54.518Z,62.55
2022-09-17T16:16:23.455Z,62.61
2022-09-17T16:18:50.532Z,63.73
2022-09-17T16:21:19.199Z,64.16
2022-09-17T16:23:46.122Z,63.38
2022-09-17T16:26:17.759Z,62.38
2022-09-17T16:28:47.108Z,63.01
2022-09-17T16:31:14.650Z,63.55
2022-09-17T16:33:41.549Z,62.81
2022-09-17T16:36:08.085Z,62.40
2022-09-17T16:38:35.595Z,61.29
2022-09-17T16:41:05.412Z,59.32
2022-09-17T16:43:33.652Z,59.04
2022-09-17T16:46:06.147Z,59.30
2022-09-17T16:48:33.163Z,58.96
2022-09-17T16:51:01.690Z,59.77
2022-09-17T16:53:28.144Z,60.08
2022-09-17T16:55:54.742Z,60.52
2022-09-17T16:58:21.246Z,61.20
2022-09-17T17:00:47.784Z,61.83
2022-09-17T17:03:15.279Z,62.57
2022-09-17T17:05:43.299Z,63.24
2022-09-17T17:08:10.506Z,64.05
2022-09-17T17:10:40.047Z,64.94
2022-09-17T17:13:06.677Z,67.19
2022-09-17T17:15:33.204Z,68.82
2022-09-17T17:17:59.762Z,69.86
2022-09-17T17:20:26.215Z,70.52
2022-09-17T17:22:52.938Z,72.00
2022-09-17T17:25:19.407Z,71.69
2022-09-17T17:27:45.861Z,72.29
2022-09-17T17:30:17.097Z,73.00
2022-09-17T17:32:45.114Z,73.44
2022-09-17T17:35:11.526Z,72.80
2022-09-17T17:37:38.305Z,72.41
2022-09-17T17:40:07.301Z,73.06
2022-09-17T17:42:38.073Z,72.61
2022-09-17T17:45:05.983Z,72.45
2022-09-17T17:47:33.054Z,73.12
2022-09-17T17:49:59.559Z,73.64
2022-09-17T17:52:26.134Z,73.40
2022-09-17T17:54:52.871Z,73.89
2022-09-17T17:57:19.526Z,73.55
2022-09-17T17:59:46.056Z,73.94
2022-09-17T18:02:12.655Z,74.50
2022-09-17T18:04:39.226Z,74.17
2022-09-17T18:07:05.721Z,75.27
2022-09-17T18:09:32.348Z,75.60
2022-09-17T18:11:58.742Z,76.22
2022-09-17T18:14:25.178Z,76.60
2022-09-17T18:16:51.763Z,77.28
2022-09-17T18:19:18.186Z,79.02
2022-09-17T18:21:44.590Z,78.77
2022-09-17T18:24:11.034Z,79.05
2022-09-17T18:26:37.663Z,79.74
2022-09-17T18:29:07.787Z,79.28
2022-09-17T18:31:35.877Z,80.26
2022-09-17T18:34:09.332Z,79.72
2022-09-17T18:36:36.725Z,80.75
2022-09-17T18:41:52.662Z,80.50
2022-09-17T18:44:21.832Z,81.32
2022-09-17T18:46:50.136Z,80.59
2022-09-17T18:49:16.834Z,80.22
2022-09-17T18:51:43.390Z,80.62
2022-09-17T18:54:12.568Z,80.47
2022-09-17T18:56:40.182Z,80.11
2022-09-17T18:59:08.320Z,80.47
2022-09-17T19:01:35.728Z,80.69
2022-09-17T19:04:03.268Z,80.06
2022-09-17T19:06:30.940Z,80.28
2022-09-17T19:09:01.810Z,80.12
2022-09-17T19:11:28.670Z,80.09
2022-09-17T19:13:55.293Z,80.37
2022-09-17T19:16:22.557Z,80.43
2022-09-17T19:18:49.244Z,80.92
2022-09-17T19:21:17.876Z,80.79
2022-09-17T19:23:46.890Z,80.56
2022-09-17T19:26:19.766Z,80.25
2022-09-17T19:28:47.044Z,81.10
2022-09-17T19:31:16.401Z,80.82
2022-09-17T19:33:43.733Z,81.03
2022-09-17T19:36:15.846Z,80.73
2022-09-17T19:38:43.044Z,81.51
2022-09-17T19:41:12.796Z,81.10
2022-09-17T19:43:40.106Z,81.29
2022-09-17T19:46:10.241Z,81.11
2022-09-17T19:48:36.690Z,81.36
2022-09-17T19:51:07.634Z,81.03
2022-09-17T19:53:34.118Z,81.35
2022-09-17T19:56:03.368Z,81.89
2022-09-17T19:58:29.872Z,81.91
2022-09-17T20:00:59.775Z,81.69
2022-09-17T20:03:26.439Z,82.01
2022-09-17T20:06:00.735Z,82.32
2022-09-17T20:08:27.590Z,81.77
2022-09-17T20:10:54.273Z,82.61
2022-09-17T20:13:21.806Z,82.85
2022-09-17T20:15:48.152Z,81.93
2022-09-17T20:18:16.191Z,82.59
2022-09-17T20:20:45.030Z,82.48
2022-09-17T20:23:11.402Z,82.23
2022-09-17T20:25:38.077Z,82.32
2022-09-17T20:28:04.521Z,82.91
2022-09-17T20:30:30.896Z,82.16
2022-09-17T20:32:57.257Z,82.42
2022-09-17T20:35:23.622Z,81.49
2022-09-17T20:40:36.355Z,82.15
2022-09-17T20:43:02.724Z,82.07
2022-09-17T20:45:29.072Z,81.84
2022-09-17T20:47:56.174Z,81.69
2022-09-17T20:50:22.696Z,82.02
2022-09-17T20:52:49.102Z,81.87
2022-09-17T20:55:15.860Z,81.60
2022-09-17T20:57:42.350Z,81.98
2022-09-17T21:00:19.638Z,82.63
2022-09-17T21:02:50.561Z,82.57
2022-09-17T21:05:18.116Z,82.79
2022-09-17T21:07:44.760Z,83.06
2022-09-17T21:10:12.464Z,83.03
2022-09-17T21:12:38.892Z,82.69
2022-09-17T21:15:05.759Z,82.96
2022-09-17T21:17:32.197Z,82.66
2022-09-17T21:19:58.885Z,83.27
2022-09-17T21:22:25.245Z,83.14
2022-09-17T21:24:51.723Z,82.90
2022-09-17T21:27:18.184Z,82.98
2022-09-17T21:29:44.537Z,83.03
2022-09-17T21:32:10.912Z,82.75
2022-09-17T21:34:37.246Z,82.80
2022-09-17T21:37:04.799Z,83.08
2022-09-17T21:39:34.847Z,83.53
2022-09-17T21:42:01.220Z,82.77
2022-09-17T21:44:27.648Z,83.43
2022-09-17T21:46:57.436Z,83.41
2022-09-17T21:49:24.891Z,83.25
2022-09-17T21:51:51.279Z,83.35
2022-09-17T21:54:18.318Z,83.63
2022-09-17T21:56:46.157Z,84.26
2022-09-17T21:59:14.427Z,83.45
2022-09-17T22:01:43.780Z,83.59
2022-09-17T22:04:13.262Z,83.40
2022-09-17T22:06:40.906Z,83.28
2022-09-17T22:09:12.284Z,84.13
2022-09-17T22:11:38.660Z,83.73
2022-09-17T22:14:19.030Z,84.00
2022-09-17T22:16:47.981Z,83.57
2022-09-17T22:19:16.484Z,83.66
2022-09-17T22:21:46.535Z,83.66
2022-09-17T22:24:14.758Z,84.42
2022-09-17T22:26:44.275Z,84.08
2022-09-17T22:29:17.024Z,84.67
2022-09-17T22:31:43.785Z,84.63
2022-09-17T22:34:12.694Z,84.42
2022-09-17T22:36:39.548Z,84.41
2022-09-17T22:39:06.699Z,85.30
2022-09-17T22:41:35.988Z,84.83
2022-09-17T22:44:05.148Z,85.06
2022-09-17T22:46:34.614Z,84.82
2022-09-17T22:49:01.627Z,85.54
2022-09-17T22:51:29.856Z,85.27
2022-09-17T22:53:58.125Z,85.29
2022-09-17T22:56:25.674Z,85.01
2022-09-17T22:58:52.016Z,85.02
2022-09-17T23:01:21.021Z,85.54
2022-09-17T23:03:48.814Z,85.19
2022-09-17T23:06:19.322Z,85.58
2022-09-17T23:08:46.317Z,85.68
2022-09-17T23:11:23.184Z,85.31
2022-09-17T23:13:50.781Z,85.29
2022-09-17T23:16:17.985Z,85.37
2022-09-17T23:18:44.861Z,85.80
2022-09-17T23:21:14.216Z,86.26
2022-09-17T23:23:42.547Z,86.97
2022-09-17T23:26:14.720Z,86.82
2022-09-17T23:28:41.475Z,87.43
2022-09-17T23:31:12.169Z,88.15
2022-09-17T23:33:39.033Z,87.83
2022-09-17T23:36:13.666Z,88.62
2022-09-17T23:38:41.584Z,88.18
2022-09-17T23:41:18.398Z,88.99
2022-09-17T23:43:47.650Z,88.16
2022-09-17T23:46:14.891Z,88.26
2022-09-17T23:48:42.001Z,88.68
2022-09-17T23:51:08.910Z,89.16
2022-09-17T23:53:36.486Z,88.94
2022-09-17T23:56:04.335Z,88.73
2022-09-17T23:58:32.374Z,88.82
